logo
Games tagged Alternate History
# Game Release date
Price
Score rank
(Userscore / Metascore)
Owners
Players
Playtime (Median)
Developer(s)
Publisher(s)
1 BioShock Aug 21, 2007 N/AN/A (N/A/96%)5,000,000 .. 10,000,0001.61%00:54 (00:54)2K Boston, 2K Australia2K
2 BioShock Infinite Mar 25, 2013 $29.99N/A (N/A/94%)2,000,000 .. 5,000,0000.43%02:23 (00:47)Irrational Games, Virtual Programming (Linux)2K
3 Unity of Command II Nov 12, 2019 $29.99N/A (N/A/91%)0 .. 20,000NAN%00:00 (00:00)2x2 Games, Croteam2x2 Games
4 Return to Castle Wolfenstein Aug 3, 2007 $4.99N/A (N/A/88%)500,000 .. 1,000,0000%00:00 (00:00)Gray Matter StudiosBethesda-Softworks
5 Wolfenstein II: The New Colossus Oct 26, 2017 $59.99N/A (N/A/86%)1,000,000 .. 2,000,0000%00:00 (00:00)Machine GamesBethesda Softworks
6 SUNLESS SKIES Jan 31, 2019 $24.99N/A (N/A/86%)50,000 .. 100,0000%00:00 (00:00)Failbetter GamesFailbetter Games
7 Assassin's Creed 2 Deluxe Edition Mar 9, 2010 $19.99N/A (N/A/86%)1,000,000 .. 2,000,0000%00:00 (00:00)Ubisoft MontrealUbisoft
8 Hearts of Iron IV Jun 6, 2016 $39.99N/A (N/A/83%)2,000,000 .. 5,000,00016.67%07:42 (09:01)Paradox Development StudioParadox Interactive
9 Silent Storm Gold Edition Oct 2, 2013 $9.99N/A (N/A/83%)200,000 .. 500,0000%00:00 (00:00)NivalTHQ Nordic
10 Europa Universalis III Complete Feb 4, 2009 $14.99N/A (N/A/83%)500,000 .. 1,000,0000%00:00 (00:00)Paradox Development StudioParadox Interactive
11 Hypnospace Outlaw Mar 12, 2019 $15.99N/A (N/A/82%)20,000 .. 50,000NAN%00:00 (00:00)Tendershoot, Michael Lasch, ThatWhichIs MediaNo More Robots
12 Command & Conquer: Red Alert 3 Jan 8, 2009 $19.99N/A (N/A/82%)500,000 .. 1,000,0004.44%07:00 (04:40)EA Los AngelesElectronic Arts
13 The Age of Decadence Oct 14, 2015 $14.99N/A (N/A/81%)100,000 .. 200,0000%00:00 (00:00)Iron Tower StudioIron Tower Studio
14 Irony Curtain: From Matryoshka with Love May 16, 2019 $19.99N/A (N/A/81%)0 .. 20,000NAN%00:00 (00:00)Artifex MundiArtifex Mundi
15 Jamestown Jun 8, 2011 $9.99N/A (N/A/81%)500,000 .. 1,000,0000%00:00 (00:00)Final Form GamesFinal Form Games
16 Wolfenstein: The New Order May 19, 2014 $19.99N/A (N/A/81%)1,000,000 .. 2,000,0000%00:00 (00:00)Machine GamesBethesda-Soft
17 Wargame: European Escalation Feb 22, 2012 $9.99N/A (N/A/81%)500,000 .. 1,000,0000%00:00 (00:00)Eugen SystemsEugen Systems
18 BioShock Remastered Sep 15, 2016 $19.99N/A (N/A/80%)1,000,000 .. 2,000,0001.08%01:49 (00:45)2K Boston, 2K Australia, Blind Squirrel, Feral Interactive (Mac)2K, Feral Interactive (Mac)
19 Wargame: Airland Battle May 29, 2013 $19.99N/A (N/A/80%)500,000 .. 1,000,0000%00:00 (00:00)Eugen SystemsEugen Systems
20 Assassin’s Creed III Nov 20, 2012 N/AN/A (N/A/80%)1,000,000 .. 2,000,0000%00:00 (00:00)Ubisoft MontrealUbisoft
21 Wargame: Red Dragon Apr 17, 2014 $29.99N/A (N/A/78%)500,000 .. 1,000,0000%00:00 (00:00)Eugen SystemsEugen Systems
22 Herald: An Interactive Period Drama - Book I & II Feb 22, 2017 $9.99N/A (N/A/77%)0 .. 20,000NAN%00:00 (00:00)WispfireWispfire
23 Hearts of Iron III Aug 7, 2009 $9.99N/A (N/A/77%)500,000 .. 1,000,0000%00:00 (00:00)Paradox Development StudioParadox Interactive
24 Wolfenstein: The Old Blood May 4, 2015 $19.99N/A (N/A/76%)500,000 .. 1,000,0000%00:00 (00:00)MachineGamesBethesda Softworks
25 Singularity Jun 30, 2010 $29.99N/A (N/A/76%)200,000 .. 500,0000%00:00 (00:00)Raven SoftwareActivision
26 Battlezone 98 Redux Apr 18, 2016 $19.99N/A (N/A/75%)20,000 .. 50,0000%00:00 (00:00)Big Boat InteractiveRebellion
27 Kenshi Dec 6, 2018 $29.99N/A (N/A/75%)500,000 .. 1,000,0004.76%00:01 (00:00)Lo-Fi GamesLo-Fi Games
28 Victoria II Aug 30, 2010 $19.99N/A (N/A/75%)500,000 .. 1,000,0003.03%20:47 (06:55)Paradox Development StudioParadox Interactive
29 Battlestations Pacific May 13, 2009 $8.99N/A (N/A/74%)200,000 .. 500,0000%00:00 (00:00)Eidos Studio HungarySquare Enix
30 Phantom Doctrine Aug 14, 2018 $39.99N/A (N/A/73%)100,000 .. 200,0000%00:00 (00:00)CreativeForge GamesGood Shepherd Entertainment
31 Blues and Bullets Jul 22, 2015 $4.99N/A (N/A/73%)50,000 .. 100,0000%00:00 (00:00)A Crowd of MonstersA Crowd of Monsters
32 All Walls Must Fall - A Tech-Noir Tactics Game Feb 23, 2018 $4.99N/A (N/A/72%)0 .. 20,0000%00:00 (00:00)inbetweengamesinbetweengames
33 Not Tonight Aug 17, 2018 $19.99N/A (N/A/71%)50,000 .. 100,0000%00:00 (00:00)PanicBarnNo More Robots
34 TimeShift Jul 23, 2009 $19.99N/A (N/A/71%)100,000 .. 200,0000%00:00 (00:00)Saber InteractiveActivision
35 Wolfenstein: Youngblood Jul 25, 2019 $29.99N/A (N/A/69%)100,000 .. 200,00012.5%02:56 (00:58)Machine Games, Arkane StudiosBethesda Softworks
36 Iron Storm May 8, 2014 $2.99N/A (N/A/69%)20,000 .. 50,0000%00:00 (00:00)MicroidsMicroids
37 The Church in the Darkness Aug 2, 2019 $19.99N/A (N/A/65%)0 .. 20,000NAN%00:00 (00:00)Paranoid ProductionsFellow Traveller
38 NecroVision May 20, 2009 $4.99N/A (N/A/63%)100,000 .. 200,0000%00:00 (00:00)The Farm 511C Entertainment
39 The Descendant Mar 24, 2016 $14.99N/A (N/A/59%)500,000 .. 1,000,0000.47%01:30 (00:30)Gaming Corps ABMicroids Indie, Microids
40 EMPYRE: Lords of the Sea Gates Oct 4, 2017 $29.99N/A (N/A/56%)0 .. 20,000NAN%00:00 (00:00)Coin Operated GamesCoin Operated Games, Work Shift Play Inc.
41 Bohemian Killing Jul 21, 2016 $12.99N/A (N/A/55%)0 .. 20,0000%00:00 (00:00)The MoonwallsLibredia Entertainment
42 Wolfenstein: Cyberpilot Jul 25, 2019 $19.99N/A (N/A/54%)0 .. 20,000NAN%00:00 (00:00)Arkane Studios, Machine GamesBethesda Softworks
43 Dino D-Day Apr 8, 2011 $9.99N/A (N/A/53%)1,000,000 .. 2,000,0000%00:00 (00:00)800 North and Digital Ranch800 North and Digital Ranch
44 Darkest of Days Sep 2009 $19.99N/A (N/A/51%)20,000 .. 50,0000%00:00 (00:00)8monkey LabsPhantom EFX
45 The Great Fantasy Struggle Sep 26, 2018 $9.99N/A (N/A)0 .. 20,000NAN%00:00 (00:00)Alina DigitalAlina Digital
46 End War RTS Aug 1, 2018 $7.99N/A (N/A)0 .. 20,000NAN%00:00 (00:00)AuraroAuraro
47 Age of Viking Conquest Sep 19, 2018 $4.99N/A (N/A)0 .. 20,000NAN%00:00 (00:00)Nemoïd AppsArgonauts Interactive
48 Aces of the Luftwaffe - Squadron Jul 24, 2018 $14.99N/A (N/A)0 .. 20,000NAN%00:00 (00:00)HandyGamesHandyGames
49 Scythe: Digital Edition Sep 5, 2018 $19.99N/A (N/A)20,000 .. 50,0000%00:00 (00:00)The Knights of UnityAsmodee Digital
50 Because We're Here ~Mohnblume und Blauerose~ Act I Jul 19, 2018 $5.99N/A (N/A)0 .. 20,000NAN%00:00 (00:00)Studio ElfriedeStudio Elfriede
51 Age of Gladiators II: Rome Aug 21, 2018 $19.99N/A (N/A)0 .. 20,0000%00:00 (00:00)Creative Storm EntertainmentCreative Storm Entertainment
52 Age of Civilizations II Nov 21, 2018 $2.99N/A (N/A)200,000 .. 500,00020%02:18 (01:09)Łukasz JakowskiŁukasz Jakowski Games
53 Tombeaux Nov 5, 2018 $4.99N/A (N/A)0 .. 20,000NAN%00:00 (00:00)Dave BeckDave Beck
54 Pendula Swing Episode 1 - Tired and Retired Aug 15, 2018 FreeN/A (N/A)0 .. 20,000NAN%00:00 (00:00)Valiant Game Studio ABValiant Game Studio AB
55 Headliner: NoviNews Oct 23, 2018 $13.99N/A (N/A)0 .. 20,000NAN%00:00 (00:00)Unbound CreationsUnbound Creations
56 Paw Patrol: On A Roll! Oct 23, 2018 $29.99N/A (N/A)0 .. 20,000NAN%00:00 (00:00)Torus GamesOutright Games
57 Imperialism: Fate of India Aug 10, 2018 $4.99N/A (N/A)0 .. 20,000NAN%00:00 (00:00)GamenesisGamenesis
58 Death Trader: Cold War Oct 19, 2018 $6.99N/A (N/A)0 .. 20,000NAN%00:00 (00:00)DreambakersDreambakers
59 Intelligence Trader Aug 3, 2018 $5.99N/A (N/A)0 .. 20,000NAN%00:00 (00:00)DreambakersDreambakers
60 I Love You, Colonel Sanders! A Finger Lickin’ Good Dating Simulator Sep 24, 2019 FreeN/A (N/A)200,000 .. 500,000NAN%00:00 (00:00)PsyopKFC
61 Rick Rack Aug 1, 2019 $8.99N/A (N/A)0 .. 20,000NAN%00:00 (00:00)IronVishwaKarma
62 In the beginning Sep 7, 2019 $9.99N/A (N/A)0 .. 20,000NAN%00:00 (00:00)Solare GamesSolare Games
63 Last Day of Rome Sep 6, 2019 $11.99N/A (N/A)0 .. 20,000NAN%00:00 (00:00)Hamsters GamingHamsters Gaming
64 macdows 95 Sep 5, 2019 $2.49N/A (N/A)0 .. 20,000NAN%00:00 (00:00)Yunus AyyildizYunus Ayyildiz
65 BDSM: Big Drunk Satanic Massacre Oct 10, 2019 $19.99N/A (N/A)20,000 .. 50,000NAN%00:00 (00:00)Big Way GamesBig Way Games
66 Overpass Aug 15, 2019 $14.99N/A (N/A)0 .. 20,000NAN%00:00 (00:00)Studio BeanStudio Bean
67 Singularity: Tactics Arena Oct 1, 2019 $5.99N/A (N/A)0 .. 20,000NAN%00:00 (00:00)A Memory of Eternity LLCA Memory of Eternity LLC
68 TUTUTUTU - Tea party Aug 14, 2019 $15.99N/A (N/A)0 .. 20,000NAN%00:00 (00:00)Marginal actMarginal act
69 HENTAI - World War II Sep 30, 2019 $0.99N/A (N/A)0 .. 20,0000%00:00 (00:00)Konnichiwa GamesKonnichiwa Games
70 Saboteur II: Avenging Angel Aug 2, 2019 $7.99N/A (N/A)0 .. 20,000NAN%00:00 (00:00)SimFabric, Clive TownsendSimFabric
71 HEIST Sep 27, 2019 $18.99N/A (N/A)0 .. 20,000NAN%00:00 (00:00)Atomizer GamesAtomizer Games
72 Encased: A Sci-Fi Post-Apocalyptic RPG Sep 26, 2019 $29.99N/A (N/A)20,000 .. 50,000NAN%00:00 (00:00)Dark Crystal GamesBlack Tower Entertainment
73 Bloody Chronicles - New Cycle of Death Visual Novel Aug 1, 2019 $24.99N/A (N/A)0 .. 20,000NAN%00:00 (00:00)Igrasil Development TeamIgrasil Studio
74 Long Gone Days Mar 28, 2018 $14.99N/A (N/A)0 .. 20,000NAN%00:00 (00:00)BURABURA
75 Call of War Oct 21, 2017 FreeN/A (N/A)200,000 .. 500,0007.69%00:27 (00:09)Bytro Labs GmbHBytro Labs GmbH
76 Ostalgie: The Berlin Wall Mar 25, 2018 $5.99N/A (N/A)20,000 .. 50,0000%00:00 (00:00)KremlingamesKremlingames
77 Boom Island Oct 16, 2017 $0.99N/A (N/A)0 .. 20,000NAN%00:00 (00:00)Caden Goodwincsgood
78 CONFLICT OF NATIONS: WORLD WAR 3 Mar 15, 2018 FreeN/A (N/A)100,000 .. 200,0000%00:00 (00:00)Dorado GamesDorado Games
79 Arms Race - TCWE Oct 5, 2017 $14.99N/A (N/A)0 .. 20,000NAN%00:00 (00:00)Alina DigitalAlina Digital
80 Cruz Brothers Mar 13, 2018 $9.99N/A (N/A)0 .. 20,000NAN%00:00 (00:00)DCF StudiosDCF Studios
81 Shadow Council: The Puppeteers Jun 21, 2018 $4.99N/A (N/A)0 .. 20,000NAN%00:00 (00:00)DreambakersDreambakers
82 a Museum of Dubious Splendors Mar 6, 2018 FreeN/A (N/A)20,000 .. 50,0000%00:00 (00:00)Studio OleomingusThe Irregular Corporation
83 Chronicles of Vinland May 23, 2018 $3.99N/A (N/A)0 .. 20,0000%00:00 (00:00)Wonderbox GamesWonderbox Games
84 Third Front: WWII Apr 6, 2018 $3.99N/A (N/A)20,000 .. 50,0000%00:00 (00:00)Hamsters GamingHamsters Gaming
85 PAWARUMI Jan 30, 2018 $14.99N/A (N/A)0 .. 20,000NAN%00:00 (00:00)Manufacture 43Manufacture 43
86 Panzer Hearts - War Visual Novel Apr 25, 2018 FreeN/A (N/A)0 .. 20,0000%00:00 (00:00)HELYEESHELYEES
87 Formata Dec 7, 2017 $9.99N/A (N/A)0 .. 20,000NAN%00:00 (00:00)Nezon ProductionNezon Production
88 Steampunk Tower 2 Apr 19, 2018 $7.99N/A (N/A)20,000 .. 50,0000%00:00 (00:00)DreamGateDreamGate
89 Tragedy of Prince Rupert Jul 26, 2017 $3.99N/A (N/A)0 .. 20,0000%00:00 (00:00)SpytihněvSpytihněv
90 Lost in Secular Love Oct 28, 2016 $9.99N/A (N/A)0 .. 20,000NAN%00:00 (00:00)YETU GAMEYETU GAME
91 Project First Contact Jul 26, 2017 $0.5N/A (N/A)50,000 .. 100,0000%00:00 (00:00)Cristian Manolachi, Atomic FabrikCristian Manolachi, Atomic Fabrik
92 IKEA VR Pancake Kitchen May 29, 2017 FreeN/A (N/A)100,000 .. 200,0000%00:00 (00:00)IKEA Communications ABIKEA Communications AB
93 BioShock 2 Remastered Sep 15, 2016 $19.99N/A (N/A)1,000,000 .. 2,000,0000.57%00:21 (00:07)2K Marin, 2K China, Digital Extremes, 2K Australia, Blind Squirrel2K
94 Interkosmos Apr 25, 2017 $4.99N/A (N/A)0 .. 20,000NAN%00:00 (00:00)Ovid WorksOvid Works
95 Crisis in the Kremlin Mar 20, 2017 $4.99N/A (N/A)200,000 .. 500,0000%00:00 (00:00)KremlingamesKremlingames
96 Darkarta: A Broken Heart's Quest Standard Edition Aug 28, 2017 $5.99N/A (N/A)0 .. 20,000NAN%00:00 (00:00)Tuttifrutti InteractiveTuttifrutti Interactive
97 Darkarta: A Broken Heart's Quest Collector's Edition Mar 8, 2017 $3.99N/A (N/A)20,000 .. 50,0000%00:00 (00:00)Tuttifrutti InteractiveTuttifrutti Interactive
98 Strategy & Tactics: Dark Ages Aug 4, 2017 $14.99N/A (N/A)50,000 .. 100,0000%00:00 (00:00)HeroCraftHeroCraft
99 Anti Zombie AI - Tower Defense (Azai - TD) Aug 4, 2017 $1.99N/A (N/A)0 .. 20,000NAN%00:00 (00:00)PodShoh StudioPodShoh Studio
100 Greenwood the Last Ritual Jan 19, 2017 $2.99N/A (N/A)100,000 .. 200,0000%00:00 (00:00)AO2GameAO2Game
101 Supreme Ruler The Great War Aug 1, 2017 $19.99N/A (N/A)20,000 .. 50,000NAN%00:00 (00:00)BattleGoat StudiosBattleGoat Studios
102 Disgraced Nov 18, 2016 $9.99N/A (N/A)0 .. 20,00033.33%00:19 (00:09)Corrosive Studios LLCCorrosive Studios LLC
103 Dino Eggs: Rebirth Jun 8, 2016 $9.99N/A (N/A)0 .. 20,0000%00:00 (00:00)David H Schroeder, Eric FerrotDavid H Schroeder
104 Hegemony III: Clash of the Ancients Aug 25, 2015 $29.99N/A (N/A)20,000 .. 50,0000%00:00 (00:00)Longbow GamesLongbow Games
105 Pharaonic Apr 28, 2016 $14.99N/A (N/A)20,000 .. 50,0000%00:00 (00:00)Milkstone StudiosMilkstone Studios
106 I Shall Remain Aug 24, 2015 $9.99N/A (N/A)20,000 .. 50,0000%00:00 (00:00)Scorpius GamesScorpius Games
107 Strategy & Tactics: Wargame Collection Apr 22, 2016 $9.99N/A (N/A)50,000 .. 100,0000%00:00 (00:00)HeroCraftHeroCraft
108 The Cold War Era Sep 9, 2016 $4.99N/A (N/A)0 .. 20,0000%00:00 (00:00)Alina DigitalAlina Digital
109 Steam Squad Jul 28, 2016 $17.99N/A (N/A)20,000 .. 50,000NAN%00:00 (00:00)Bretwalda GamesBretwalda Games
110 Karaski: What Goes Up... Mar 2, 2016 $11.99N/A (N/A)0 .. 20,0000%00:00 (00:00)Unbound CreationsPlug In Digital
111 FreeHolder Jul 5, 2016 $9.99N/A (N/A)0 .. 20,0000%00:00 (00:00)RogueWareRogueWare
112 Age of Gladiators Feb 25, 2016 $9.99N/A (N/A)50,000 .. 100,0000%00:00 (00:00)Creative Storm EntertainmentCreative Storm Entertainment
113 The Temporal Invasion Jul 4, 2016 $6.99N/A (N/A)20,000 .. 50,0000%00:00 (00:00)Hybriona LabsHybriona Labs
114 Turnover Dec 15, 2015 $4.99N/A (N/A)0 .. 20,0000%00:00 (00:00)Long Division LLCLong Division LLC
115 Generals & Rulers Jun 1, 2019 $11.99N/A (N/A)0 .. 20,000100%00:01 (00:01)Hamsters GamingHamsters Gaming
116 Corrupt The Priest Dec 14, 2018 $3.99N/A (N/A)0 .. 20,000NAN%00:00 (00:00)DreambakersDreambakers
117 China: Mao's legacy May 24, 2019 $6.99N/A (N/A)0 .. 20,0000%00:00 (00:00)KremlingamesKremlingames
118 Evil Bank Manager Dec 8, 2018 $11.99N/A (N/A)20,000 .. 50,0000%00:00 (00:00)Hamsters GamingHamsters Gaming
119 Precipice May 1, 2019 $7.99N/A (N/A)0 .. 20,0000%00:00 (00:00)LRDGames, Inc.LRDGames, Inc.
120 Ymir Mar 16, 2019 $34.99N/A (N/A)20,000 .. 50,000NAN%00:00 (00:00)Thibaud MichaudThibaud Michaud
121 KILL la KILL -IF Jul 25, 2019 $39.99N/A (N/A)0 .. 20,000NAN%00:00 (00:00)Arc System Works, APLUS Co., Ltd.Arc System Works
122 Blood Bond - Into the Shroud Feb 27, 2019 $24.99N/A (N/A)0 .. 20,000NAN%00:00 (00:00)W.R.K.S GamesW.R.K.S Games
123 局外人 L'Etranger Jul 17, 2019 FreeN/A (N/A)0 .. 20,000NAN%00:00 (00:00)Class-2Class-2
124 Rogue Reaper Feb 1, 2019 FreeN/A (N/A)50,000 .. 100,000NAN%00:00 (00:00)Fireroot StudiosFireroot Studios
125 Master Of Secrets: Dark Europe Jun 25, 2019 $3.99N/A (N/A)0 .. 20,000NAN%00:00 (00:00)Paradox BagParadox Bag
126 Supreme Ruler Ultimate Oct 17, 2014 $19.99N/A (N/A)50,000 .. 100,0000%00:00 (00:00)BattleGoat StudiosBattleGoat Studios
127 Dark Storm: VR Missions Aug 19, 2015 N/AN/A (N/A)0 .. 20,0000%00:00 (00:00)Fenrir StudiosFenrir Studios
128 Colonial Conquest Jul 28, 2015 $9.99N/A (N/A)20,000 .. 50,000NAN%00:00 (00:00)Argonauts Interactive, Collectif NemoïdPlug In Digital, Argonauts Interactive
129 Deadlands Noir - That Old Time Religion Jul 3, 2015 $1.99N/A (N/A)0 .. 20,0000%00:00 (00:00)SmiteWorks USA, LLCSmiteWorks USA, LLC
130 Super 3-D Noah's Ark Jan 1, 1995 $4.99N/A (N/A)50,000 .. 100,0000%00:00 (00:00)Wisdom Tree, Inc.Piko Interactive LLC, Classics Digital
131 BEARS, VODKA, BALALAIKA! Nov 6, 2019 $1.99N/A (N/A)0 .. 20,000NAN%00:00 (00:00)ООО "Работяги-Геймс"ООО "Работяги-Геймс"
132 Taste of Power Oct 10, 2019 $14.99N/A (N/A)0 .. 20,000NAN%00:00 (00:00)OneOcean LLCOneOcean LLC
133 Command & Conquer: Red Alert 3 - Uprising Oct 6, 2009 $19.99N/A (N/A)1,000,000 .. 2,000,0001.64%01:59 (00:39)EA Los AngelesElectronic Arts
134 Iron Harvest Sep 1, 2020 N/AN/A (N/A)0 .. 20,0000%00:00 (00:00)KING ArtDeep Silver
Overview

Alternate History

Games with this tag: 134
Average userscore: N/A%
Average metascore: 75.5%
Average playtime: 03:22
Total copies owned: 36,921,000
Average price: $14.11
Help

Owners: Estimated number of people owning this game. The number might be way too small for new releases and sometimes way too big for games that had free weekend event recently. Read more on About page.

Playtime: Average hours played in total per person that have actually launched this game since March 2009. This time is calculated for the whole lifetime, not for the particular year.

Average score: Average users and metacritic score for all games with this score assigned.

Average playtime: Average lifetime playtime for all games where this data is available.

Games in this genre: Self-explaining - number of games with this tag. Only inculdes games with sales data available.

Total copies owned: Refers to total copies of games with this tag acquired by users for the lifetime. Includes copies sold, downloaded for free and given out.

This number might be too small for recently released games or too big for games that had a free weekend in the last couple of months.

Graphs

Login required.

Please register or log in to see this information.

Login required.

Please register or log in to see this information.